Terminal Aerodrome Forecast
Issued by NWS

Home | Current Version | Previous Version | Text Only | Print | Product List | Glossary On
Versions: 1 2 3 4 5 6 7 8 9 10 11 12 13 14 15 16 17 18 19
000
FTUS45 KRIW 222100 AAA
TAFCPR
TAF AMD
KCPR 222115Z 2221/2318 10012KT P6SM VCSH SCT012 BKN070
      TEMPO 2221/2223 OVC009
     FM222300 09012G20KT P6SM VCSH SCT030 BKN050
     FM230100 09010KT P6SM VCSH SCT020 BKN035
     FM230900 VRB06KT P6SM SCT020 BKN050
     FM231600 VRB05KT P6SM SCT040 BKN080=

USA.gov is the U.S. government's official web portal to all federal, state and local government web resources and services.